Terminal Aerodrome Forecast
Issued by NWS

Home | Current Version | Previous Version | Text Only | Print | Product List | Glossary On
Versions: 1 2 3 4 5 6 7 8 9 10 11 12 13 14 15 16 17 18 19
915
FTUS42 KFFC 250154 AAA
TAFRYY
TAF AMD
KRYY 250154Z 2502/2524 14006KT P6SM BKN070
     FM250900 14004KT P6SM SCT012 BKN025
     FM251100 14004KT P6SM BKN012
     FM251500 16009KT P6SM BKN025
     FM251800 16010KT P6SM BKN040 PROB30 2521/2524 4SM -TSRA
      BKN035CB
      AMD NOT SKED 2504/2512=

USA.gov is the U.S. government's official web portal to all federal, state and local government web resources and services.